logo tempoitalia

Diretta Meteo Hobart, Australialunedì 31 agosto ore 15:00

Mappa
Sereno 19 °C Sereno 24 Ore: T.min 9 T.max 20
Ponente Ovest/Nord-Ovest Km/h 25.9 Punto di rugiada: 4 °C Umidità: 37% Visibilità: 10 Km
Il sole sorge alle: 06:38 Il sole tramonta alle: 17:42
31 Agosto 2026 15:00 tempo osservato: Sereno Sereno 19 37 1022 vento: Nord O/NO 25.9
31 Agosto 2026 14:30 tempo osservato: Sereno Sereno 20 39 1022 vento: Nord O/NO 25.9
31 Agosto 2026 14:00 tempo osservato: Sereno Sereno 19 39 1022 vento: Nord O/NO 29.6
31 Agosto 2026 13:30 tempo osservato: Sereno Sereno 19 39 1022 vento: Nord O/NO 25.9
31 Agosto 2026 13:00 tempo osservato: Sereno Sereno 19 34 1023 vento: Nord O/NO 25.9
31 Agosto 2026 12:30 tempo osservato: Sereno Sereno 18 42 1024 vento: Nord NO 24
31 Agosto 2026 12:00 tempo osservato: Sereno Sereno 18 42 1024 vento: Nord NO 20.3
31 Agosto 2026 11:30 tempo osservato: Sereno Sereno 17 41 1025 vento: Nord O/NO 22.2
31 Agosto 2026 11:00 tempo osservato: Sereno Sereno 16 44 1025 vento: Nord NO 20.3
31 Agosto 2026 10:30 tempo osservato: Sereno Sereno 15 54 1025 vento: Nord N/NO 18.5
31 Agosto 2026 10:00 tempo osservato: Sereno Sereno 14 54 1025 vento: Nord NO 9.3
31 Agosto 2026 09:30 tempo osservato: Sereno Sereno 14 54 1026 vento: Nord NO 7.4
31 Agosto 2026 09:00 tempo osservato: Sereno Sereno 13 58 1026 vento: Nord O 9.3
31 Agosto 2026 08:30 tempo osservato: Sereno Sereno 11 66 1026 vento: Nord N/NO 16.7
31 Agosto 2026 08:00 tempo osservato: Sereno Sereno 11 66 1026 vento: Nord N/NO 18.5
31 Agosto 2026 07:30 tempo osservato: Sereno Sereno 10 66 1026 vento: Nord NO 25.9
31 Agosto 2026 07:00 tempo osservato: Sereno Sereno 10 66 1025 vento: Nord NO 29.6
31 Agosto 2026 06:30 tempo osservato: Sereno Sereno 10 71 1025 vento: Nord NO 27.8
31 Agosto 2026 06:00 tempo osservato: Sereno Sereno 10 71 1025 vento: Nord NO 27.8
31 Agosto 2026 05:30 tempo osservato: Sereno Sereno 10 71 1024 vento: Nord NO 29.6
31 Agosto 2026 05:00 tempo osservato: Sereno Sereno 10 71 1024 vento: Nord NO 31.5
31 Agosto 2026 04:30 tempo osservato: Sereno Sereno 10 71 1024 vento: Nord NO 33.3
31 Agosto 2026 04:00 tempo osservato: Sereno Sereno 11 61 1024 vento: Nord NO 35.2
31 Agosto 2026 03:30 tempo osservato: Sereno Sereno 11 61 1024 vento: Nord NO 38.8
31 Agosto 2026 03:00 tempo osservato: Sereno Sereno 11 61 1024 vento: Nord NO 38.8
31 Agosto 2026 02:30 tempo osservato: Sereno Sereno 11 61 1024 vento: Nord NO 31.5
31 Agosto 2026 02:00 tempo osservato: Sereno Sereno 11 66 1025 vento: Nord NO 31.5
31 Agosto 2026 01:30 tempo osservato: Sereno Sereno 11 61 1025 vento: Nord NO 31.5
31 Agosto 2026 01:00 tempo osservato: Sereno Sereno 11 66 1025 vento: Nord NO 24
31 Agosto 2026 00:30 tempo osservato: Sereno Sereno 11 61 1025 vento: Nord NO 20.3
31 Agosto 2026 00:00 tempo osservato: Sereno Sereno 12 57 1024 vento: Nord N/NO 25.9
30 Agosto 2026 23:30 tempo osservato: Sereno Sereno 11 66 1025 vento: Nord O/NO 14.8
30 Agosto 2026 23:00 tempo osservato: Sereno Sereno 11 61 1024 vento: Nord NO 18.5
30 Agosto 2026 22:30 tempo osservato: Sereno Sereno 12 57 1024 vento: Nord NO 18.5
30 Agosto 2026 22:00 tempo osservato: Sereno Sereno 12 57 1025 vento: Nord N 9.3
30 Agosto 2026 21:30 tempo osservato: Sereno Sereno 9 70 1024 vento: Nord N 0
30 Agosto 2026 21:00 tempo osservato: Sereno Sereno 10 71 1024 vento: Nord N 5.5
30 Agosto 2026 20:30 tempo osservato: Sereno Sereno 9 70 1024 vento: Nord N 0
30 Agosto 2026 20:00 tempo osservato: Sereno Sereno 12 57 1024 vento: Nord NO 7.4
30 Agosto 2026 19:30 tempo osservato: Sereno Sereno 14 54 1024 vento: Nord O/SO 14.8
30 Agosto 2026 19:00 tempo osservato: Sereno Sereno 14 54 1023 vento: Nord O 22.2
30 Agosto 2026 18:30 tempo osservato: Sereno Sereno 14 54 1023 vento: Nord O/NO 24
30 Agosto 2026 18:00 tempo osservato: Sereno Sereno 16 44 1023 vento: Nord O/NO 18.5
30 Agosto 2026 17:30 tempo osservato: Sereno Sereno 17 36 1023 vento: Nord O/NO 24
30 Agosto 2026 17:00 tempo osservato: Sereno Sereno 18 36 1022 vento: Nord O/NO 18.5
30 Agosto 2026 16:30 tempo osservato: Sereno Sereno 19 34 1022 vento: Nord O 25.9
30 Agosto 2026 16:00 tempo osservato: Sereno Sereno 19 34 1022 vento: Nord O 31.5